Depesza METAR lotniska Warszawa-Okęcie


METAR = EPWA 050730Z VRB03KT CAVOK 29/13 Q1019 NOSIG

STACJA......... EPWA - Warszawa-Okęcie (WAW)
POMIAR......... Sun Jul 5, 09:30 CEST
TERAZ.......... Sun Jul 5, 09:43 CEST
CZAS........... 13 min temu
WIATR.......... zmienny z prędkością 6 km/h
WIDZIALNOŚĆ.... powyżej 10 kilometrów
CHMURY......... bezchmurne niebo
TEMPERATURA.... 29°C
T.PUNKTU ROSY.. 13°C
WILGOTNOŚĆ..... 37%
CIŚNIENIE...... 1019 hPa
PROGNOZA....... bez nagłych zmian w ciągu 2h

Depesza METAR lotniska Kraków-Balice


METAR = EPKK 050700Z VRB02KT CAVOK 25/15 Q1019

STACJA......... EPKK - Kraków-Balice (KRK)
POMIAR......... Sun Jul 5, 09:00 CEST
TERAZ.......... Sun Jul 5, 09:43 CEST
CZAS........... 43 min temu
WIATR.......... zmienny z prędkością 4 km/h
WIDZIALNOŚĆ.... powyżej 10 kilometrów
CHMURY......... bezchmurne niebo
TEMPERATURA.... 25°C
T.PUNKTU ROSY.. 15°C
WILGOTNOŚĆ..... 54%
CIŚNIENIE...... 1019 hPa

Depesza METAR lotniska Łódź-Lublinek


METAR = EPLL 050730Z 10004KT 050V140 CAVOK 29/15 Q1019

STACJA......... EPLL - Łódź-Lublinek (LCJ)
POMIAR......... Sun Jul 5, 09:30 CEST
TERAZ.......... Sun Jul 5, 09:43 CEST
CZAS........... 13 min temu
WIATR.......... wschodni (E) z prędkością 7 km/h
WIDZIALNOŚĆ.... powyżej 10 kilometrów
CHMURY......... bezchmurne niebo
TEMPERATURA.... 29°C
T.PUNKTU ROSY.. 15°C
WILGOTNOŚĆ..... 43%
INDEX GORĄCA... 29°C
CIŚNIENIE...... 1019 hPa

Depesza METAR lotniska Wrocław-Strachowice


METAR = EPWR 050730Z VRB03KT CAVOK 29/18 Q1019

STACJA......... EPWR - Wrocław-Strachowice (WRO)
POMIAR......... Sun Jul 5, 09:30 CEST
TERAZ.......... Sun Jul 5, 09:43 CEST
CZAS........... 13 min temu
WIATR.......... zmienny z prędkością 6 km/h
WIDZIALNOŚĆ.... powyżej 10 kilometrów
CHMURY......... bezchmurne niebo
TEMPERATURA.... 29°C
T.PUNKTU ROSY.. 18°C
WILGOTNOŚĆ..... 51%
INDEX GORĄCA... 29°C
CIŚNIENIE...... 1019 hPa

Depesza METAR lotniska Katowice-Pyrzowice


METAR = EPKT 050730Z 26003KT 210V310 CAVOK 26/15 Q1019

STACJA......... EPKT - Katowice-Pyrzowice (KTW)
POMIAR......... Sun Jul 5, 09:30 CEST
TERAZ.......... Sun Jul 5, 09:43 CEST
CZAS........... 13 min temu
WIATR.......... zachodni (W) z prędkością 6 km/h
WIDZIALNOŚĆ.... powyżej 10 kilometrów
CHMURY......... bezchmurne niebo
TEMPERATURA.... 26°C
T.PUNKTU ROSY.. 15°C
WILGOTNOŚĆ..... 51%
CIŚNIENIE...... 1019 hPa

Depesza METAR lotniska Gdańsk


METAR = EPGD 050730Z VRB02KT CAVOK 27/15 Q1018

STACJA......... EPGD - Gdańsk im. Lecha Wałęsy (GDN)
POMIAR......... Sun Jul 5, 09:30 CEST
TERAZ.......... Sun Jul 5, 09:43 CEST
CZAS........... 13 min temu
WIATR.......... zmienny z prędkością 4 km/h
WIDZIALNOŚĆ.... powyżej 10 kilometrów
CHMURY......... bezchmurne niebo
TEMPERATURA.... 27°C
T.PUNKTU ROSY.. 15°C
WILGOTNOŚĆ..... 48%
INDEX GORĄCA... 27°C
CIŚNIENIE...... 1018 hPa

Depesza METAR lotniska Poznań-Ławica


METAR = EPPO 050730Z 04003KT 010V080 CAVOK 26/16 Q1018

STACJA......... EPPO - Poznań-Ławica (POZ)
POMIAR......... Sun Jul 5, 09:30 CEST
TERAZ.......... Sun Jul 5, 09:43 CEST
CZAS........... 13 min temu
WIATR.......... północno-wschodni (NE) z prędkością 6 km/h
WIDZIALNOŚĆ.... powyżej 10 kilometrów
CHMURY......... bezchmurne niebo
TEMPERATURA.... 26°C
T.PUNKTU ROSY.. 16°C
WILGOTNOŚĆ..... 54%
CIŚNIENIE...... 1018 hPa

Depesza METAR lotniska Rzeszów-Jasionka


METAR = EPRZ 050730Z VRB02KT CAVOK 27/12 Q1020

STACJA......... EPRZ - Rzeszów-Jasionka (RZE)
POMIAR......... Sun Jul 5, 09:30 CEST
TERAZ.......... Sun Jul 5, 09:43 CEST
CZAS........... 13 min temu
WIATR.......... zmienny z prędkością 4 km/h
WIDZIALNOŚĆ.... powyżej 10 kilometrów
CHMURY......... bezchmurne niebo
TEMPERATURA.... 27°C
T.PUNKTU ROSY.. 12°C
WILGOTNOŚĆ..... 39%
CIŚNIENIE...... 1020 hPa

Depesza METAR lotniska Szczecin-Goleniów


METAR = EPSC 050700Z 00000KT CAVOK 23/19 Q1018

STACJA......... EPSC - Szczecin-Goleniów (SZZ)
POMIAR......... Sun Jul 5, 09:00 CEST
TERAZ.......... Sun Jul 5, 09:43 CEST
CZAS........... 43 min temu
WIATR.......... bezwietrznie
WIDZIALNOŚĆ.... powyżej 10 kilometrów
CHMURY......... bezchmurne niebo
TEMPERATURA.... 23°C
T.PUNKTU ROSY.. 19°C
WILGOTNOŚĆ..... 78%
CIŚNIENIE...... 1018 hPa

Depesza METAR lotniska Lublin-Świdnik


METAR = EPLB 050730Z 30003KT 240V360 CAVOK 28/15 Q1020 =

STACJA......... EPLB - Lublin-Świdnik (LUZ)
POMIAR......... Sun Jul 5, 09:30 CEST
TERAZ.......... Sun Jul 5, 09:43 CEST
CZAS........... 13 min temu
WIATR.......... zachodni północno-zachodni (WNW) z prędkością 6 km/h
WIDZIALNOŚĆ.... powyżej 10 kilometrów
CHMURY......... bezchmurne niebo
TEMPERATURA.... 28°C
T.PUNKTU ROSY.. 15°C
WILGOTNOŚĆ..... 45%
INDEX GORĄCA... 28°C
CIŚNIENIE...... 1020 hPa

Depesza METAR lotniska Bydgoszcz-Szwederowo


METAR = EPBY 050730Z VRB01KT CAVOK 31/10 Q1018 =

STACJA......... EPBY - Bydgoszcz-Szwederowo (BZG)
POMIAR......... Sun Jul 5, 09:30 CEST
TERAZ.......... Sun Jul 5, 09:43 CEST
CZAS........... 13 min temu
WIATR.......... zmienny z prędkością 2 km/h
WIDZIALNOŚĆ.... powyżej 10 kilometrów
CHMURY......... bezchmurne niebo
TEMPERATURA.... 31°C
T.PUNKTU ROSY.. 10°C
WILGOTNOŚĆ..... 27%
CIŚNIENIE...... 1018 hPa

Depesza METAR lotniska Zielona Góra-Babimost


METAR = EPZG 050730Z 01004KT 340V050 9999 FEW060CB 24/20  Q1018 =

STACJA......... EPZG - Zielona Góra-Babimost (IEG)
POMIAR......... Sun Jul 5, 09:30 CEST
TERAZ.......... Sun Jul 5, 09:43 CEST
CZAS........... 13 min temu
WIATR.......... północny (N) z prędkością 7 km/h
WIDZIALNOŚĆ.... powyżej 10 kilometrów
CHMURY......... zachmurzenie niewielkie (1/8-2/8)
TEMPERATURA.... 24°C
T.PUNKTU ROSY.. 20°C
WILGOTNOŚĆ..... 78%

Sprawdź też: prognoza pogody dla miast w Polsce!